Etusivu
METAR-TAF:

METAR-TAF

Lentoasemat :

Hobbs, New Mexico, Yhdysvallat

Leveyspiiri: 32-41N, Pituuspiiri: 103-13W, korkeus merenpinnasta: 1115 m

Tämänhetkinen sää

Tämä raportti tehtiin 14 minuuttia sitten, kello 12.35 UTC
Tuuli 7 kn lännestä/lounaasta
Lämpötila -1°C
Kosteus 86%
Ilmanpaine 1029 hPa
Näkyvyys: 16.1 km
selkeää

METAR: KHOB 151235Z AUTO 25007KT 10SM CLR M01/M03 A3038 RMK AO2

Aika: 05:49 (12:49 UTC)

Sääennuste

Tämä raportti tehtiin 1 tunti ja 28 minuuttia sitten, kello 11.21 UTC
Ennuste voimassa 15. päivästä klo 12 UTC - 16. päivään klo 12 UTC
Tuuli 6 kn lännestä
Näkyvyys: 10 km
selkeää
From 15. päivästä klo 1500 UTC
Tuuli 10 kn etelästä
Näkyvyys: 10 km
Muutamia pilviä 25000 ft:n korkeudessa

TAF: KHOB 151121Z 1512/1612 27006KT P6SM SKC FM151500 19010KT P6SM FEW250

Säähavainnot ja -ennusteet yli 4000 lentoasemalta (METAR- ja TAF-raportit).

Käytössä olevat sääasemat on merkitty karttaan keltaisilla ja punaisilla pisteillä.

Aseta hiiri pisteen päälle nähdäksesi sääaseman nimen.

Klikkaa sitten nähdäksesi säähavainnot ja -ennusteet.

Kartan vaihtaminen: klikkaa mustalla rastilla varustettuja vihreitä pisteitä, niin voit zoomata sisään; viivalla varustettua vihreää pistettä, niin voit zoomata ulos tai vihreitä nuolia, niin pääset viereisille kartoille.


METAR-TAF: